Terminal Aerodrome Forecast
Issued by NWS

Home | Current Version | Previous Version | Text Only | Print | Product List | Glossary On
Versions: 1 2 3 4 5 6 7 8 9 10 11 12 13 14 15 16 17 18 19 20 21 22 23 24 25 26 27
000
FTUS43 KGRB 261200 AAA
TAFATW
TAF AMD
KATW 261238Z 2613/2712 VRB03KT 6SM BR SCT011 SCT060
      TEMPO 2613/2617 BKN011
     FM261700 07003KT P6SM SCT020 BKN070
     FM270500 31005KT P6SM SCT012 BKN020=

USA.gov is the U.S. government's official web portal to all federal, state and local government web resources and services.